createdAt,value
2018-09-18T00:01:26.611Z,6.80
2018-09-18T00:03:55.915Z,5.83
2018-09-18T00:06:25.113Z,8.93
2018-09-18T00:08:54.331Z,7.00
2018-09-18T00:11:24.015Z,9.57
2018-09-18T00:13:53.209Z,13.80
2018-09-18T00:16:22.408Z,7.13
2018-09-18T00:18:51.619Z,6.80
2018-09-18T00:21:20.797Z,8.73
2018-09-18T00:23:50.015Z,5.50
2018-09-18T00:26:19.372Z,7.20
2018-09-18T00:28:48.627Z,6.73
2018-09-18T00:31:17.840Z,9.23
2018-09-18T00:33:47.410Z,9.60
2018-09-18T00:36:16.600Z,5.53
2018-09-18T00:38:45.981Z,8.50
2018-09-18T00:41:15.399Z,12.00
2018-09-18T00:43:45.068Z,5.67
2018-09-18T00:46:14.263Z,15.53
2018-09-18T00:48:43.487Z,12.87
2018-09-18T00:51:12.686Z,8.93
2018-09-18T00:53:41.887Z,5.93
2018-09-18T00:56:12.667Z,11.53
2018-09-18T00:58:42.368Z,12.03
2018-09-18T01:01:11.565Z,6.63
2018-09-18T01:03:40.794Z,8.93
2018-09-18T01:06:09.994Z,11.70
2018-09-18T01:08:39.195Z,9.13
2018-09-18T01:11:08.445Z,14.67
2018-09-18T01:13:37.646Z,8.20
2018-09-18T01:16:06.859Z,6.43
2018-09-18T01:18:42.223Z,7.87
2018-09-18T01:21:12.079Z,6.90
2018-09-18T01:23:41.276Z,7.13
2018-09-18T01:26:10.624Z,9.23
2018-09-18T01:28:39.791Z,8.53
2018-09-18T01:31:09.005Z,6.73
2018-09-18T01:33:38.471Z,6.80
2018-09-18T01:36:07.659Z,8.23
2018-09-18T01:38:36.851Z,7.43
2018-09-18T01:41:06.454Z,6.63
2018-09-18T01:43:35.703Z,14.70
2018-09-18T01:46:04.904Z,9.87
2018-09-18T01:48:34.127Z,6.67
2018-09-18T01:51:03.320Z,7.50
2018-09-18T01:53:32.503Z,9.40
2018-09-18T01:56:01.777Z,7.03
2018-09-18T01:58:30.956Z,7.10
2018-09-18T02:01:00.775Z,8.60
2018-09-18T02:03:30.315Z,10.13
2018-09-18T02:05:59.643Z,8.10
2018-09-18T02:08:28.826Z,8.03
2018-09-18T02:10:58.048Z,6.63
2018-09-18T02:13:27.240Z,12.10
2018-09-18T02:15:56.445Z,11.40
2018-09-18T02:18:25.652Z,10.50
2018-09-18T02:20:54.855Z,8.67
2018-09-18T02:23:24.055Z,14.43
2018-09-18T02:25:53.609Z,6.80
2018-09-18T02:28:22.806Z,6.97
2018-09-18T02:30:51.995Z,7.00
2018-09-18T02:33:21.207Z,7.37
2018-09-18T02:35:50.411Z,10.73
2018-09-18T02:38:19.608Z,7.70
2018-09-18T02:40:48.887Z,13.03
2018-09-18T02:43:18.259Z,10.63
2018-09-18T02:45:47.460Z,7.27
2018-09-18T02:48:16.707Z,7.57
2018-09-18T02:50:45.906Z,5.77
2018-09-18T02:53:15.099Z,5.67
2018-09-18T02:55:44.327Z,5.80
2018-09-18T02:58:13.511Z,9.50
2018-09-18T03:00:42.704Z,6.37
2018-09-18T03:03:12.413Z,6.43
2018-09-18T03:05:41.888Z,11.47
2018-09-18T03:08:11.281Z,6.90
2018-09-18T03:10:41.132Z,6.47
2018-09-18T03:13:10.512Z,16.37
2018-09-18T03:15:39.712Z,10.13
2018-09-18T03:18:08.926Z,6.53
2018-09-18T03:20:38.123Z,7.20
2018-09-18T03:23:07.355Z,6.10
2018-09-18T03:25:36.584Z,6.60
2018-09-18T03:28:05.831Z,9.53
2018-09-18T03:30:35.155Z,8.27
2018-09-18T03:33:04.496Z,10.53
2018-09-18T03:35:33.738Z,6.67
2018-09-18T03:38:02.885Z,7.30
2018-09-18T03:40:32.080Z,7.23
2018-09-18T03:43:01.283Z,11.23
2018-09-18T03:45:30.471Z,10.33
2018-09-18T03:47:59.713Z,9.00
2018-09-18T03:50:29.364Z,8.83
2018-09-18T03:52:58.567Z,15.47
2018-09-18T03:55:28.219Z,11.87
2018-09-18T03:57:57.419Z,15.60
2018-09-18T04:00:26.624Z,12.83
2018-09-18T04:02:55.890Z,10.50
2018-09-18T04:05:25.832Z,7.77
2018-09-18T04:07:55.035Z,10.83
2018-09-18T04:10:24.668Z,9.33
2018-09-18T04:12:53.860Z,10.60
2018-09-18T04:15:23.160Z,12.30
2018-09-18T04:17:53.482Z,9.47
2018-09-18T04:20:22.772Z,12.00
2018-09-18T04:22:51.975Z,8.73
2018-09-18T04:25:21.194Z,8.00
2018-09-18T04:27:50.427Z,8.70
2018-09-18T04:30:19.627Z,9.00
2018-09-18T04:32:48.840Z,14.67
2018-09-18T04:35:18.040Z,9.20
2018-09-18T04:37:47.223Z,13.17
2018-09-18T04:40:17.198Z,19.27
2018-09-18T04:42:46.375Z,9.63
2018-09-18T04:45:15.573Z,13.40
2018-09-18T04:47:44.810Z,10.20
2018-09-18T04:50:14.003Z,16.93
2018-09-18T04:52:43.202Z,20.60
2018-09-18T04:55:12.449Z,10.97
2018-09-18T04:57:41.647Z,20.23
2018-09-18T05:00:10.843Z,19.43
2018-09-18T05:02:40.513Z,10.27
2018-09-18T05:05:09.859Z,13.13
2018-09-18T05:07:39.867Z,7.90
2018-09-18T05:10:09.123Z,17.27
2018-09-18T05:12:38.322Z,16.33
2018-09-18T05:15:07.523Z,19.90
2018-09-18T05:17:36.764Z,8.80
2018-09-18T05:20:06.430Z,16.80
2018-09-18T05:22:35.599Z,15.60
2018-09-18T05:25:05.568Z,9.73
2018-09-18T05:27:34.752Z,14.60
2018-09-18T05:30:04.062Z,11.87
2018-09-18T05:32:33.284Z,28.70
2018-09-18T05:35:02.488Z,13.27
2018-09-18T05:37:31.799Z,11.13
2018-09-18T05:40:01.040Z,11.10
2018-09-18T05:42:30.247Z,7.70
2018-09-18T05:44:59.507Z,10.27
2018-09-18T05:47:28.781Z,11.70
2018-09-18T05:49:57.981Z,9.80
2018-09-18T05:52:27.204Z,12.00
2018-09-18T05:54:56.419Z,9.67
2018-09-18T05:57:25.639Z,14.90
2018-09-18T05:59:54.820Z,15.30
2018-09-18T06:02:24.283Z,19.73
2018-09-18T06:04:53.525Z,14.80
2018-09-18T06:07:22.717Z,17.87
2018-09-18T06:09:52.287Z,12.47
2018-09-18T06:12:21.523Z,18.43
2018-09-18T06:14:50.680Z,27.97
2018-09-18T06:17:19.951Z,18.77
2018-09-18T06:19:49.236Z,14.20
2018-09-18T06:22:18.499Z,12.23
2018-09-18T06:24:50.100Z,16.50
2018-09-18T06:27:23.368Z,15.90
2018-09-18T06:29:52.706Z,13.40
2018-09-18T06:32:22.035Z,14.90
2018-09-18T06:34:51.223Z,17.37
2018-09-18T06:37:20.465Z,18.50
2018-09-18T06:39:49.843Z,11.07
2018-09-18T06:42:19.214Z,22.63
2018-09-18T06:44:48.676Z,12.67
2018-09-18T06:47:18.267Z,13.53
2018-09-18T06:49:47.451Z,12.67
2018-09-18T06:52:19.383Z,19.73
2018-09-18T06:54:48.796Z,15.23
2018-09-18T06:57:20.557Z,17.90
2018-09-18T06:59:50.931Z,26.57
2018-09-18T07:02:20.299Z,14.23
2018-09-18T07:04:51.472Z,16.07
2018-09-18T07:07:22.740Z,15.10
2018-09-18T07:09:54.315Z,22.77
2018-09-18T07:12:23.995Z,21.20
2018-09-18T07:14:54.879Z,24.50
2018-09-18T07:17:24.371Z,26.13
2018-09-18T07:19:53.739Z,30.60
2018-09-18T07:22:22.951Z,25.03
2018-09-18T07:24:52.168Z,26.10
2018-09-18T07:27:22.178Z,24.10
2018-09-18T07:29:51.767Z,20.03
2018-09-18T07:32:20.964Z,24.83
2018-09-18T07:34:50.255Z,42.23
2018-09-18T07:37:20.479Z,20.13
2018-09-18T07:39:49.707Z,20.60
2018-09-18T07:42:18.988Z,23.13
2018-09-18T07:44:48.231Z,24.77
2018-09-18T07:47:18.800Z,21.53
2018-09-18T07:49:47.993Z,21.70
2018-09-18T07:52:18.151Z,19.57
2018-09-18T07:54:47.339Z,20.07
2018-09-18T07:57:17.687Z,24.13
2018-09-18T07:59:46.920Z,21.90
2018-09-18T08:02:16.119Z,17.70
2018-09-18T08:04:47.855Z,21.53
2018-09-18T08:07:22.544Z,23.87
2018-09-18T08:09:52.115Z,20.87
2018-09-18T08:12:24.220Z,19.13
2018-09-18T08:14:53.436Z,20.93
2018-09-18T08:17:25.477Z,16.30
2018-09-18T08:19:55.811Z,17.50
2018-09-18T08:22:26.015Z,23.77
2018-09-18T08:24:56.621Z,18.97
2018-09-18T08:27:25.816Z,26.20
2018-09-18T08:29:55.014Z,19.73
2018-09-18T08:32:27.669Z,17.33
2018-09-18T08:34:57.807Z,28.10
2018-09-18T08:37:27.015Z,28.77
2018-09-18T08:39:56.386Z,22.13
2018-09-18T08:42:25.451Z,20.33
2018-09-18T08:44:55.277Z,38.53
2018-09-18T08:47:24.550Z,26.27
2018-09-18T08:49:53.743Z,22.00
2018-09-18T08:52:23.318Z,19.47
2018-09-18T08:54:53.965Z,19.83
2018-09-18T08:57:24.156Z,27.37
2018-09-18T08:59:54.758Z,18.33
2018-09-18T09:02:24.016Z,28.57
2018-09-18T09:04:53.944Z,18.20
2018-09-18T09:07:24.460Z,15.70
2018-09-18T09:09:55.641Z,16.93
2018-09-18T09:12:25.154Z,21.67
2018-09-18T09:14:54.362Z,14.33
2018-09-18T09:17:23.582Z,13.80
2018-09-18T09:19:52.792Z,16.77
2018-09-18T09:22:22.148Z,16.30
2018-09-18T09:24:51.507Z,19.73
2018-09-18T09:27:20.723Z,17.97
2018-09-18T09:29:49.958Z,18.63
2018-09-18T09:32:19.497Z,28.10
2018-09-18T09:34:48.830Z,20.90
2018-09-18T09:37:18.082Z,19.37
2018-09-18T09:39:47.231Z,14.60
2018-09-18T09:42:16.424Z,17.50
2018-09-18T09:44:45.643Z,16.83
2018-09-18T09:47:15.059Z,15.70
2018-09-18T09:49:44.288Z,20.47
2018-09-18T09:52:13.488Z,11.60
2018-09-18T09:54:42.927Z,14.67
2018-09-18T09:57:12.107Z,7.60
2018-09-18T09:59:41.310Z,9.53
2018-09-18T10:02:16.588Z,21.00
2018-09-18T10:04:46.076Z,9.37
2018-09-18T10:07:15.588Z,12.50
2018-09-18T10:09:45.122Z,7.20
2018-09-18T10:12:14.291Z,6.57
2018-09-18T10:14:43.976Z,12.00
2018-09-18T10:17:13.168Z,7.90
2018-09-18T10:19:42.375Z,6.80
2018-09-18T10:22:11.569Z,9.50
2018-09-18T10:24:40.805Z,8.50
2018-09-18T10:27:09.990Z,8.30
2018-09-18T10:29:39.185Z,6.73
2018-09-18T10:32:08.644Z,7.50
2018-09-18T10:34:37.837Z,10.10
2018-09-18T10:37:07.073Z,9.33
2018-09-18T10:39:36.263Z,8.03
2018-09-18T10:42:05.568Z,12.27
2018-09-18T10:44:34.740Z,9.23
2018-09-18T10:47:04.824Z,5.03
2018-09-18T10:49:34.333Z,12.60
2018-09-18T10:52:03.495Z,10.33
2018-09-18T10:54:33.144Z,11.40
2018-09-18T10:57:02.348Z,12.03
2018-09-18T10:59:31.538Z,5.20
2018-09-18T11:02:00.857Z,17.37
2018-09-18T11:04:30.024Z,4.37
2018-09-18T11:06:59.275Z,4.97
2018-09-18T11:09:28.533Z,6.93
2018-09-18T11:11:58.211Z,5.70
2018-09-18T11:14:27.376Z,6.93
2018-09-18T11:16:57.546Z,6.70
2018-09-18T11:19:26.850Z,14.23
2018-09-18T11:21:56.151Z,4.87
2018-09-18T11:24:25.332Z,4.97
2018-09-18T11:26:54.483Z,5.97
2018-09-18T11:29:23.707Z,7.30
2018-09-18T11:31:52.948Z,11.50
2018-09-18T11:34:22.184Z,12.90
2018-09-18T11:36:51.364Z,5.10
2018-09-18T11:39:21.176Z,8.53
2018-09-18T11:41:50.404Z,4.80
2018-09-18T11:44:19.655Z,4.93
2018-09-18T11:46:48.913Z,9.50
2018-09-18T11:49:18.085Z,4.20
2018-09-18T11:51:47.419Z,4.00
2018-09-18T11:54:16.664Z,4.10
2018-09-18T11:56:46.164Z,5.83
2018-09-18T11:59:15.279Z,13.00
2018-09-18T12:01:44.875Z,3.73
2018-09-18T12:04:14.091Z,3.33
2018-09-18T12:06:43.298Z,3.40
2018-09-18T12:09:12.595Z,5.30
2018-09-18T12:11:42.263Z,4.83
2018-09-18T12:14:11.444Z,3.43
2018-09-18T12:16:40.675Z,4.50
2018-09-18T12:19:10.372Z,2.70
2018-09-18T12:21:39.552Z,3.77
2018-09-18T12:24:09.200Z,3.13
2018-09-18T12:26:38.436Z,3.20
2018-09-18T12:29:07.640Z,6.17
2018-09-18T12:31:36.977Z,4.90
2018-09-18T12:34:06.253Z,3.90
2018-09-18T12:36:35.472Z,6.50
2018-09-18T12:39:07.443Z,4.10
2018-09-18T12:41:36.682Z,3.30
2018-09-18T12:44:06.674Z,3.30
2018-09-18T12:46:36.148Z,3.20
2018-09-18T12:49:05.541Z,3.60
2018-09-18T12:51:34.703Z,5.33
2018-09-18T12:54:04.004Z,4.00
2018-09-18T12:56:33.159Z,2.73
2018-09-18T12:59:02.440Z,3.90
2018-09-18T13:01:31.571Z,4.03
2018-09-18T13:04:00.777Z,5.77
2018-09-18T13:06:30.130Z,3.50
2018-09-18T13:08:59.552Z,3.00
2018-09-18T13:11:28.740Z,8.03
2018-09-18T13:13:57.959Z,8.00
2018-09-18T13:16:27.168Z,5.80
2018-09-18T13:18:56.344Z,5.87
2018-09-18T13:21:25.955Z,5.30
2018-09-18T13:23:55.168Z,6.03
2018-09-18T13:26:24.364Z,2.70
2018-09-18T13:28:53.540Z,4.20
2018-09-18T13:31:23.127Z,2.80
2018-09-18T13:33:52.473Z,2.50
2018-09-18T13:36:21.670Z,7.83
2018-09-18T13:38:50.881Z,2.60
2018-09-18T13:41:20.219Z,2.67
2018-09-18T13:43:49.372Z,2.73
2018-09-18T13:46:18.658Z,3.80
2018-09-18T13:48:48.120Z,2.00
2018-09-18T13:51:17.304Z,6.20
2018-09-18T13:53:46.788Z,2.60
2018-09-18T13:56:16.066Z,2.43
2018-09-18T13:58:45.207Z,4.17
2018-09-18T14:01:14.507Z,8.87
2018-09-18T14:03:43.655Z,3.00
2018-09-18T14:06:12.847Z,3.73
2018-09-18T14:08:42.101Z,3.37
2018-09-18T14:11:11.304Z,2.90
2018-09-18T14:13:40.518Z,2.93
2018-09-18T14:16:09.778Z,2.47
2018-09-18T14:18:39.011Z,2.80
2018-09-18T14:21:08.955Z,2.50
2018-09-18T14:23:39.015Z,2.70
2018-09-18T14:26:08.292Z,3.67
2018-09-18T14:28:37.640Z,3.53
2018-09-18T14:31:06.951Z,6.90
2018-09-18T14:33:36.140Z,2.80
2018-09-18T14:36:05.372Z,3.03
2018-09-18T14:38:35.132Z,4.50
2018-09-18T14:41:04.473Z,2.97
2018-09-18T14:43:33.831Z,2.50
2018-09-18T14:46:03.143Z,3.63
2018-09-18T14:48:32.721Z,3.23
2018-09-18T14:51:01.945Z,3.80
2018-09-18T14:53:31.369Z,5.07
2018-09-18T14:56:00.564Z,4.73
2018-09-18T14:58:29.755Z,4.30
2018-09-18T15:00:59.140Z,2.90
2018-09-18T15:03:28.547Z,2.63
2018-09-18T15:05:57.798Z,2.40
2018-09-18T15:08:27.065Z,9.27
2018-09-18T15:10:56.248Z,2.40
2018-09-18T15:13:25.444Z,3.20
2018-09-18T15:15:54.931Z,3.10
2018-09-18T15:18:24.316Z,2.30
2018-09-18T15:20:53.504Z,2.63
2018-09-18T15:23:23.010Z,2.97
2018-09-18T15:25:52.539Z,3.03
2018-09-18T15:28:21.851Z,2.60
2018-09-18T15:30:51.111Z,3.20
2018-09-18T15:33:20.319Z,2.80
2018-09-18T15:35:49.517Z,9.30
2018-09-18T15:38:18.732Z,3.83
2018-09-18T15:40:47.903Z,3.73
2018-09-18T15:43:17.100Z,4.50
2018-09-18T15:45:47.559Z,4.13
2018-09-18T15:48:16.683Z,3.80
2018-09-18T15:50:45.842Z,5.93
2018-09-18T15:53:15.158Z,3.10
2018-09-18T15:55:44.386Z,3.30
2018-09-18T15:58:14.716Z,5.53
2018-09-18T16:00:45.247Z,12.07
2018-09-18T16:03:14.412Z,6.50
2018-09-18T16:05:43.795Z,3.87
2018-09-18T16:08:13.100Z,6.23
2018-09-18T16:10:42.307Z,3.83
2018-09-18T16:13:11.486Z,8.43
2018-09-18T16:15:41.035Z,3.30
2018-09-18T16:18:10.595Z,4.10
2018-09-18T16:20:39.806Z,4.33
2018-09-18T16:23:09.000Z,4.17
2018-09-18T16:25:38.191Z,11.73
2018-09-18T16:28:08.124Z,4.63
2018-09-18T16:30:37.580Z,6.83
2018-09-18T16:33:06.741Z,5.37
2018-09-18T16:35:35.935Z,5.53
2018-09-18T16:38:05.243Z,4.87
2018-09-18T16:40:34.474Z,3.40
2018-09-18T16:43:03.665Z,3.20
2018-09-18T16:45:33.140Z,6.10
2018-09-18T16:48:02.596Z,4.13
2018-09-18T16:50:31.881Z,3.20
2018-09-18T16:53:01.366Z,5.60
2018-09-18T16:55:30.693Z,6.50
2018-09-18T16:58:00.013Z,11.53
2018-09-18T17:00:31.537Z,5.20
2018-09-18T17:03:00.709Z,4.93
2018-09-18T17:05:29.941Z,4.20
2018-09-18T17:07:59.167Z,3.57
2018-09-18T17:10:28.488Z,4.30
2018-09-18T17:12:57.692Z,3.90
2018-09-18T17:15:26.998Z,3.63
2018-09-18T17:17:57.499Z,10.40
2018-09-18T17:20:26.873Z,9.00
2018-09-18T17:22:57.359Z,5.73
2018-09-18T17:25:26.703Z,10.33
2018-09-18T17:27:55.902Z,8.07
2018-09-18T17:30:25.431Z,3.83
2018-09-18T17:32:54.563Z,4.30
2018-09-18T17:35:23.852Z,7.17
2018-09-18T17:37:53.097Z,9.43
2018-09-18T17:40:22.506Z,5.27
2018-09-18T17:42:53.106Z,9.17
2018-09-18T17:45:22.456Z,5.33
2018-09-18T17:47:51.864Z,13.20
2018-09-18T17:50:21.179Z,4.90
2018-09-18T17:52:50.328Z,6.30
2018-09-18T17:55:19.781Z,6.30
2018-09-18T17:57:48.970Z,14.20
2018-09-18T18:00:18.640Z,7.17
2018-09-18T18:02:47.835Z,7.70
2018-09-18T18:05:22.288Z,7.50
2018-09-18T18:07:51.479Z,6.63
2018-09-18T18:10:21.353Z,12.00
2018-09-18T18:12:50.657Z,5.70
2018-09-18T18:15:20.637Z,5.90
2018-09-18T18:17:49.828Z,11.03
2018-09-18T18:20:19.510Z,4.20
2018-09-18T18:22:48.871Z,8.50
2018-09-18T18:25:18.397Z,9.33
2018-09-18T18:27:47.636Z,7.43
2018-09-18T18:30:16.852Z,12.70
2018-09-18T18:32:46.334Z,9.63
2018-09-18T18:35:15.661Z,7.13
2018-09-18T18:37:44.861Z,5.73
2018-09-18T18:40:14.064Z,8.57
2018-09-18T18:42:43.510Z,8.37
2018-09-18T18:45:12.944Z,5.40
2018-09-18T18:47:42.240Z,5.33
2018-09-18T18:50:11.474Z,8.10
2018-09-18T18:52:40.675Z,12.80
2018-09-18T18:55:09.968Z,7.23
2018-09-18T18:57:39.168Z,10.63
2018-09-18T19:00:08.447Z,12.27
2018-09-18T19:02:37.648Z,11.30
2018-09-18T19:05:07.334Z,8.60
2018-09-18T19:07:36.499Z,10.83
2018-09-18T19:10:05.937Z,13.10
2018-09-18T19:12:35.183Z,16.63
2018-09-18T19:15:04.533Z,12.03
2018-09-18T19:17:33.780Z,13.20
2018-09-18T19:20:03.153Z,13.53
2018-09-18T19:22:32.379Z,13.37
2018-09-18T19:25:01.659Z,8.53
2018-09-18T19:27:31.016Z,10.17
2018-09-18T19:30:00.322Z,10.80
2018-09-18T19:32:30.264Z,7.60
2018-09-18T19:34:59.505Z,10.47
2018-09-18T19:37:28.808Z,10.53
2018-09-18T19:39:58.009Z,11.17
2018-09-18T19:42:27.461Z,10.37
2018-09-18T19:44:56.644Z,8.00
2018-09-18T19:47:25.861Z,9.17
2018-09-18T19:49:55.343Z,6.53
2018-09-18T19:52:24.589Z,10.37
2018-09-18T19:54:56.048Z,9.37
2018-09-18T19:57:25.232Z,12.90
2018-09-18T19:59:54.478Z,9.20
2018-09-18T20:02:23.744Z,21.90
2018-09-18T20:04:52.984Z,15.43
2018-09-18T20:07:23.012Z,16.83
2018-09-18T20:09:52.435Z,12.77
2018-09-18T20:12:21.648Z,9.80
2018-09-18T20:14:50.845Z,17.03
2018-09-18T20:17:20.084Z,12.30
2018-09-18T20:19:49.344Z,7.47
2018-09-18T20:22:18.554Z,18.63
2018-09-18T20:24:48.555Z,12.00
2018-09-18T20:27:17.756Z,12.13
2018-09-18T20:29:47.034Z,10.60
2018-09-18T20:32:16.234Z,15.30
2018-09-18T20:34:45.756Z,10.47
2018-09-18T20:37:14.955Z,11.70
2018-09-18T20:39:44.155Z,13.57
2018-09-18T20:42:13.351Z,10.67
2018-09-18T20:44:42.588Z,10.27
2018-09-18T20:47:11.775Z,11.87
2018-09-18T20:49:40.988Z,13.97
2018-09-18T20:52:10.171Z,14.13
2018-09-18T20:54:39.447Z,13.13
2018-09-18T20:57:08.667Z,10.53
2018-09-18T20:59:37.876Z,14.27
2018-09-18T21:02:07.209Z,8.60
2018-09-18T21:04:36.319Z,11.27
2018-09-18T21:07:05.565Z,14.33
2018-09-18T21:09:34.820Z,11.13
2018-09-18T21:12:04.056Z,10.30
2018-09-18T21:14:33.248Z,11.33
2018-09-18T21:17:02.616Z,8.30
2018-09-18T21:19:31.830Z,18.87
2018-09-18T21:22:01.032Z,10.53
2018-09-18T21:24:30.283Z,7.87
2018-09-18T21:26:59.501Z,10.73
2018-09-18T21:29:28.699Z,18.70
2018-09-18T21:31:57.956Z,10.37
2018-09-18T21:34:27.160Z,7.03
2018-09-18T21:36:56.675Z,10.30
2018-09-18T21:39:26.326Z,11.13
2018-09-18T21:41:55.582Z,8.03
2018-09-18T21:44:24.735Z,13.13
2018-09-18T21:46:54.009Z,12.00
2018-09-18T21:49:23.280Z,9.87
2018-09-18T21:51:52.515Z,14.47
2018-09-18T21:54:21.755Z,11.70
2018-09-18T21:56:50.940Z,9.77
2018-09-18T21:59:20.147Z,10.17
2018-09-18T22:01:49.734Z,12.10
2018-09-18T22:04:18.932Z,11.93
2018-09-18T22:06:48.150Z,9.80
2018-09-18T22:09:17.351Z,8.57
2018-09-18T22:11:46.552Z,7.83
2018-09-18T22:14:15.745Z,8.60
2018-09-18T22:16:44.955Z,8.87
2018-09-18T22:19:14.140Z,13.40
2018-09-18T22:21:43.340Z,9.50
2018-09-18T22:24:12.812Z,14.37
2018-09-18T22:26:42.014Z,17.67
2018-09-18T22:29:11.209Z,9.83
2018-09-18T22:31:40.505Z,18.40
2018-09-18T22:34:09.709Z,12.40
2018-09-18T22:36:39.361Z,8.33
2018-09-18T22:39:09.839Z,11.00
2018-09-18T22:41:39.372Z,11.53
2018-09-18T22:44:08.595Z,11.20
2018-09-18T22:46:38.062Z,7.60
2018-09-18T22:49:07.272Z,10.50
2018-09-18T22:51:36.774Z,13.93
2018-09-18T22:54:06.345Z,14.67
2018-09-18T22:56:35.532Z,7.30
2018-09-18T22:59:04.743Z,9.23
2018-09-18T23:01:33.947Z,11.53
2018-09-18T23:04:03.143Z,11.23
2018-09-18T23:06:32.341Z,15.00
2018-09-18T23:09:02.072Z,13.70
2018-09-18T23:11:31.272Z,10.00
2018-09-18T23:14:00.483Z,10.13
2018-09-18T23:16:29.691Z,19.30
2018-09-18T23:18:58.993Z,10.87
2018-09-18T23:21:28.076Z,13.10
2018-09-18T23:23:57.290Z,7.77
2018-09-18T23:26:26.477Z,10.50
2018-09-18T23:28:55.697Z,24.83
2018-09-18T23:31:25.161Z,9.90
2018-09-18T23:33:54.374Z,12.13
2018-09-18T23:36:23.848Z,9.80
2018-09-18T23:38:53.067Z,16.80
2018-09-18T23:41:22.522Z,11.97
2018-09-18T23:43:52.045Z,10.40
2018-09-18T23:46:21.262Z,11.53
2018-09-18T23:48:50.456Z,13.40
2018-09-18T23:51:19.650Z,12.30
2018-09-18T23:53:49.183Z,12.80
2018-09-18T23:56:18.367Z,17.07
2018-09-18T23:58:47.798Z,7.23
